Tiempo atmosférico en la estación meteorológica de Santiago de Compostela Aeropuerto, A Coruña (370 m.)



Fecha
DESCASC
Temp. máxima en grados centígrados (hora)
DESCASC
Temp. mínima en grados centígrados (hora)
DESCASC
Temp. media en grados centígrados
DESCASC
Racha de viento máxima en m/sg (hora)
DESCASC
Velocidad máxima media en intervalos de 10 minutos(hora)
DESCASC
Precipitaciones diarias en mm
DESCASC
Precipitaciones de 00:00 a 06:00 en mm
DESCASC
Precipitaciones de 06:00 a 12:00 en mm
DESCASC
Precipitaciones de 12:00 a 18:00 en mm
DESCASC
Precipitaciones de 18:00 a 24:00 en mm
DESCASC
16-06-2019 22.4 (16:40) 7.2 (06:20) 14.8 10.28 (18:20) 7.78 (18:20) 0 0 0 0 0
15-06-2019 17.3 (19:10) 9.7 (07:20) 13.5 9.17 (18:00) 4.17 (18:50) 1.4 1.4 0 0 0
14-06-2019 17.6 (14:40) 4.5 (06:00) 11.1 9.17 (15:30) 6.11 (15:30) 0.3 0 0 0 0.3
13-06-2019 15.6 (16:00) 6.1 (00:00) 10.9 7.78 (18:10) 5 (18:10) 0 0 0 0 0
12-06-2019 14.9 (15:40) 6.6 (00:00) 10.7 7.78 (13:50) 5.56 (13:50) 0 0 0 0 0
11-06-2019 16.1 (17:20) 8.2 (00:00) 12.2 12.78 (15:00) 7.5 (12:30) 1.1 1.1 0 0 0
10-06-2019 17 (16:20) 5.6 (00:00) 11.3 8.33 (20:20) 5.83 (20:50) 0 0 0 0 0
09-06-2019 17.2 (14:50) 8.1 (00:00) 12.7 7.22 (17:10) 4.72 (20:50) 0 0 0 0 0
08-06-2019 15.3 (14:10) 5.5 (00:00) 10.4 8.89 (17:20) 5.28 (16:40) 0 0 0 0 0
07-06-2019 14.9 (18:30) 6.7 (00:00) 10.8 14.44 (00:40) 6.94 (13:50) 5.4 2.8 0.9 1.7 0
06-06-2019 13 (17:20) 8.5 (00:00) 10.8 18.06 (15:00) 10 (14:50) 20.5 2.5 2.9 14.9 0.2
05-06-2019 15.6 (14:00) 8.5 (00:00) 12.1 11.67 (15:00) 6.39 (15:00) 3.6 0 0 3.6 0
04-06-2019 16.6 (13:40) 10.1 (00:00) 13.4 10.83 (14:50) 7.22 (15:20) 7.8 0 3.6 1 3.2
03-06-2019 19.5 (16:20) 12.9 (00:00) 16.2 9.72 (16:10) 5.83 (16:10) 3.3 0.1 2.4 0.8 0
02-06-2019 23.4 (16:10) 11.6 (00:00) 17.5 7.78 (14:40) 4.17 (12:10) 0 0 0 0 0
01-06-2019 29.9 (16:40) 13.4 (00:00) 21.6 8.89 (17:00) 5 (17:00) 0 0 0 0 0
31-05-2019 32.6 (15:20) 17.1 (00:00) 24.8 7.78 (16:20) 5.28 (16:50) 0 0 0 0 0
30-05-2019 31.3 (17:40) 12.8 (00:00) 22 7.78 (20:10) 4.17 (20:10) 0 0 0 0 0
29-05-2019 26.3 (17:40) 8.1 (00:00) 17.2 7.78 (15:30) 5.83 (21:40) 0 0 0 0 0
28-05-2019 19.5 (15:10) 8 (00:00) 13.8 10.83 (18:20) 5.83 (16:30) 0 0 0 0 0
27-05-2019 18.8 (14:10) 9.9 (00:00) 14.3 13.89 (15:10) 8.06 (20:00) 0 0 0 0 0
26-05-2019 22 (16:50) 8.6 (00:00) 15.3 11.39 (17:50) 6.11 (17:50) 0 0 0 0 0
25-05-2019 21.2 (16:10) 9.9 (00:00) 15.6 10.83 (18:20) 6.39 (18:40) 0 0 0 0 0
24-05-2019 18.3 (16:00) 7.6 (00:00) 12.9 11.67 (16:50) 6.11 (18:50) 0 0 0 0 0
23-05-2019 20 (16:40) 10.2 (00:00) 15.1 10.28 (18:40) 6.67 (19:40) 0 0 0 0 0
22-05-2019 23.6 (17:10) 7.6 (00:00) 15.6 8.89 (17:20) 5 (17:40) 0 0 0 0 0
21-05-2019 22.9 (16:10) 7.7 (07:30) 15.3 7.78 (18:50) 4.17 (18:30) 0 0 0 0 0

Gráficas

Temp. máximas Temp. mínimas Temp. medias Precipitaciones Rachas de viento máximas Velocidades máximas media en intervalos de 10 minutos

Datos horarios

Fecha y hora oficial Temperatura (ºC) Velocidad del viento (km/h) Dirección del viento Racha (km/h) Dirección de racha Precipitación (mm) Presión (hPa) Tendencia (hPa) Humedad (%)
2019-06-19 23:00:00 14.4 7 Norte 13 Norte 0 974.7 0.8 96
2019-06-19 22:00:00 15 4 Norte 13 Norte 0 974.3 0.8 95
2019-06-19 21:00:00 15.7 7 Norte 15 Norte 0 974.2 0.6 92
2019-06-19 20:00:00 16.2 7 Norte 22 Sur 0 973.9 0.3 90
2019-06-19 19:00:00 17 7 Oeste 18 Noroeste 0 973.5 0.1 85
2019-06-19 18:00:00 17 12 Oeste 28 Sudoeste 0 973.6 0.3 86
2019-06-19 17:00:00 16.7 17 Oeste 28 Oeste 0 973.6 0.5 87
2019-06-19 16:00:00 15.8 14 Sudoeste 24 Sudoeste 0.1 973.4 0.6 93
2019-06-19 15:00:00 15 10 Sudoeste 24 Sur 0.4 973.3 1 97
2019-06-19 14:00:00 15.3 14 Sur 24 Sudoeste 0 973.1 1.2 97
2019-06-19 13:00:00 14.9 14 Sur 24 Sur 0.5 972.8 1.1 99
2019-06-19 12:00:00 14.7 9 Sur 22 Sur 0.5 972.3 0.9 99
2019-06-19 11:00:00 14.3 13 Sur 24 Sur 0.2 971.9 1 99
2019-06-19 10:00:00 13.9 12 Sudoeste 22 Sur 0.1 971.7 1.3 99
2019-06-19 09:00:00 13.7 8 Sudoeste 21 Sudoeste 0 971.4 1.3 98
2019-06-19 08:00:00 13.6 12 Sudoeste 24 Sudoeste 0 970.9 0.9 98
2019-06-19 07:00:00 13.5 9 Sudoeste 24 Sudoeste 0 970.4 0.3 99
2019-06-19 06:00:00 13.8 14 Sudoeste 26 Sudoeste 0 970.1 0.2 99
2019-06-19 05:00:00 13.9 9 Sur 26 Sudoeste 0.2 970 0 99
2019-06-19 04:00:00 14.1 14 Sudoeste 28 Sudoeste 0 970.1 0.3 99
2019-06-19 03:00:00 14.1 10 Sudoeste 32 Sudoeste 0 969.9 0.1 99
2019-06-19 02:00:00 14.2 17 Sudoeste 30 Sur 0 970 0.7 99
2019-06-19 01:00:00 14.3 13 Sur 28 Sur 0 969.8 1 100
2019-06-19 00:00:00 14.3 12 Sur 28 Sudoeste 0.8 969.8 1.5 100
2019-06-18 23:00:00 14.4 18 Sur 39 Sudoeste 1.3 969.3 1.3 100
2019-06-18 22:00:00 14.7 18 Sudoeste 41 Sur 1.3 968.8 1 98
2019-06-18 21:00:00 15.8 29 Sur 48 Sur 0 968.3 0.5 88
2019-06-18 20:00:00 16.2 31 Sur 54 Sur 0 968 0.4 83
2019-06-18 19:00:00 16.7 27 Sudoeste 46 Sur 0 967.8 0.9 80
2019-06-18 18:00:00 15.5 26 Sur 45 Sur 0.5 967.8 1.1 90
2019-06-18 17:00:00 15.4 21 Sur 54 Sudoeste 0.3 967.6 0.7 96
2019-06-18 16:00:00 15.1 25 Sur 41 Sur 2.6 966.9 -0.3 98
2019-06-18 15:00:00 16.2 25 Sur 46 Sur 0.1 966.7 -0.7 87
2019-06-18 14:00:00 17.6 25 Sur 45 Sur 0 966.9 -0.6 77
2019-06-18 13:00:00 17.4 29 Sur 46 Sur 0 967.2 -0.7 82
2019-06-18 12:00:00 14.9 6 Sudeste 13 Sudeste 0 967.4 -0.4 96
2019-06-18 11:00:00 13.2 3 Este 9 Sudeste 0 967.5 -0.6 99
2019-06-18 10:00:00 12.4 3 Sudeste 8 Sudeste 0.2 967.9 -0.2 99
2019-06-18 09:00:00 11.6 4 Sur 21 Sur 0.2 967.8 -0.4 98
2019-06-18 08:00:00 11.5 12 Sur 17 Sur 1.3 968.1 -0.2 98
2019-06-18 07:00:00 11.5 3 Sudeste 15 Sur 0.7 968.1 -0.5 97
2019-06-18 06:00:00 12.3 8 Sudoeste 13 Sudoeste 0.2 968.2 -1 88
2019-06-18 05:00:00 13 9 Sur 17 Sur 0.4 968.3 -1.2 90
2019-06-18 04:00:00 14.1 4 Sur 9 Sur 0 968.6 -1.7 91
2019-06-18 03:00:00 13.6 6 Sur 15 Sudoeste 0 969.2 -1.7 92
2019-06-18 02:00:00 13.2 9 Sudeste 15 Sudeste 0 969.5 -1.9 89
2019-06-18 01:00:00 13.1 8 Sur 11 Sur 0 970.3 -0.9 85
2019-06-18 00:00:00 13.2 3 Sudeste 9 Este 0 970.9 0.1 86
2019-06-17 23:00:00 14.3 7 Oeste 26 Sudoeste 0 971.4 0.5 77
2019-06-17 22:00:00 15.6 14 Sudoeste 33 Oeste 0 971.2 -0.3 84
2019-06-17 21:00:00 17.4 6 Oeste 13 Oeste 0 970.8 -1.5 76
2019-06-17 20:00:00 18.3 3 Oeste 13 Sur 0 970.9 -1.5 72
2019-06-17 19:00:00 18.5 8 Sur 17 Sur 0 971.5 -1.5 69
2019-06-17 18:00:00 18.3 7 Sur 18 Sudoeste 0 972.3 -0.4 69
2019-06-17 17:00:00 17.8 5 Oeste 30 Sudoeste 0 972.4 -1.2 69
2019-06-17 16:00:00 18.3 10 Sudoeste 21 Sudoeste 0 973 -0.2 68
2019-06-17 15:00:00 17.9 7 Oeste 18 Oeste 0 972.7 -0.6 72
2019-06-17 14:00:00 17.1 10 Oeste 22 Oeste 0 973.6 0.2 77
2019-06-17 13:00:00 16.3 5 Oeste 13 Noroeste 0 973.2 -0.5 81
2019-06-17 12:00:00 14.8 5 Noroeste 13 Sudoeste 0 973.3 -0.8 87
2019-06-17 11:00:00 12.8 6 Sur 13 Sur 0 973.4 -0.9 96
2019-06-17 10:00:00 11.4 3 Sudeste 11 Este 0 973.7 -0.6 100
2019-06-17 09:00:00 11.2 2 Este 11 Este 0 974.1 -0.3 100
2019-06-17 08:00:00 11.2 2 Nordeste 8 Nordeste 0 974.3 -0.5 100
2019-06-17 07:00:00 11 0 Calma 8 Norte 0 974.3 -0.6 100
2019-06-17 06:00:00 10.9 2 Nordeste 9 Este 0 974.4 -1 100
2019-06-17 05:00:00 11 2 Nordeste 11 Norte 0 974.8 -1 100
2019-06-17 04:00:00 10.7 8 Norte 13 Noroeste 0 974.9 -1.1 100
2019-06-17 03:00:00 10.8 10 Noroeste 13 Noroeste 0 975.4 -0.9 98
2019-06-17 02:00:00 10.8 9 Noroeste 13 Noroeste 0 975.8 -0.6 97
2019-06-17 01:00:00 11.2 11 Noroeste 18 Norte 0 976 0 96
2019-06-17 00:00:00 11.7 14 Norte 21 Norte 0 976.3 0.5 93
2019-06-16 23:00:00 12.8 15 Norte 22 Norte 0 976.4 0.8 83
2019-06-16 22:00:00 14.5 16 Norte 32 Norte 0 976 0.6 76
2019-06-16 21:00:00 16.3 19 Norte 32 Norte 0 975.8 0.3 71
2019-06-16 20:00:00 17.7 22 Norte 33 Norte 0 975.6 0.4 68
2019-06-16 19:00:00 18.8 25 Norte 37 Norte 0 975.4 -0.1 67
2019-06-16 18:00:00 19.9 19 Norte 35 Noroeste 0 975.5 -0.4 64
2019-06-16 17:00:00 22.1 15 Norte 30 Norte 0 975.2 -1.2 59
2019-06-16 16:00:00 21.9 10 Norte 24 Norte 0 975.5 -1.2 52
2019-06-16 15:00:00 20.9 8 Oeste 18 Noroeste 0 975.9 -1.2 51
2019-06-16 14:00:00 19.6 3 Sudoeste 21 Norte 0 976.4 -0.9 57
2019-06-16 13:00:00 18.6 8 Norte 17 Norte 0 976.7 -0.7 65
2019-06-16 12:00:00 16.5 4 Nordeste 13 Sudeste 0 977.1 -0.3 69
2019-06-16 11:00:00 14.5 6 Norte 15 Norte 0 977.3 0 78
2019-06-16 10:00:00 12.3 4 Norte 11 Norte 0 977.4 0.2 85
2019-06-16 09:00:00 10.5 2 Nordeste 8 Nordeste 0 977.4 0.2 86
2019-06-16 08:00:00 8.5 0 Calma 5 Norte 0 977.3 -0.3 94
2019-06-16 07:00:00 8.4 3 Norte 5 Norte 0 977.2 -0.8 95
2019-06-16 06:00:00 8.2 0 Calma 4 Nordeste 0 977.2 -1.1 92
2019-06-16 05:00:00 8.8 0 Calma 4 Nordeste 0 977.6 -1.3 93
2019-06-16 04:00:00 8.9 0 Calma 5 Nordeste 0 978 -1.2 96
2019-06-16 03:00:00 9.4 0 Calma 8 Norte 0 978.3 -0.7 96
2019-06-16 02:00:00 10 4 Norte 9 Norte 0 978.9 0.1 95
2019-06-16 01:00:00 10.2 6 Norte 9 Norte 0 979.2 0.8 94
2019-06-16 00:00:00 11.1 4 Norte 13 Noroeste 0 979 0.7 92
2019-06-15 23:00:00 12.1 7 Noroeste 13 Noroeste 0 978.8 0.4 82
2019-06-15 22:00:00 14.4 6 Oeste 11 Oeste 0 978.4 -0.1 71
2019-06-15 21:00:00 15.8 8 Oeste 18 Sudoeste 0 978.3 -0.5 63
2019-06-15 20:00:00 16.7 10 Sudoeste 22 Oeste 0 978.4 -0.8 61
2019-06-15 19:00:00 17.1 14 Oeste 28 Sudoeste 0 978.5 -0.6 61
2019-06-15 18:00:00 16.5 10 Oeste 33 Oeste 0 978.8 -0.3 65
2019-06-15 17:00:00 14.6 10 Sur 18 Sudoeste 0 979.2 0.2 74
2019-06-15 16:00:00 14.5 12 Oeste 22 Sudoeste 0 979.1 0.4 71
2019-06-15 15:00:00 14 12 Oeste 17 Oeste 0 979.1 0.6 78
2019-06-15 14:00:00 13.9 8 Sudoeste 18 Oeste 0 979 0.6 78
2019-06-15 13:00:00 14.1 9 Oeste 22 Sudoeste 0 978.7 0.8 74
2019-06-15 12:00:00 14.1 12 Sur 24 Sudoeste 0 978.5 1 72
2019-06-15 11:00:00 13.3 10 Sudoeste 22 Sur 0 978.4 1.3 78
2019-06-15 10:00:00 12.2 10 Sudoeste 21 Oeste 0 977.9 1.2 87
2019-06-15 09:00:00 10.9 9 Sur 15 Sur 0 977.5 1.3 98
2019-06-15 08:00:00 10.1 8 Sudoeste 15 Sur 0 977.1 1 100
2019-06-15 07:00:00 10 10 Sudoeste 15 Sudoeste 0 976.7 0.5 100
2019-06-15 06:00:00 10.2 10 Sudoeste 15 Sudoeste 0 976.2 -0.1 100
2019-06-15 05:00:00 10.4 8 Sudoeste 13 Sudoeste 0 976.1 -0.2 98
2019-06-15 04:00:00 10.7 3 Sudoeste 9 Oeste 0 976.2 0.1 97
2019-06-15 03:00:00 11.1 6 Sudoeste 9 Sudoeste 0 976.3 0.5 98
2019-06-15 02:00:00 11.3 5 Sudoeste 13 Sudoeste 0 976.3 1 97
2019-06-15 01:00:00 11.1 6 Sudoeste 17 Sudoeste 1.4 976.1 1.5 97
2019-06-15 00:00:00 12 10 Sudoeste 18 Oeste 0.1 975.8 1.6 93
2019-06-14 23:00:00 12.1 8 Sudoeste 24 Sudoeste 0.2 975.3 1.6 93
2019-06-14 22:00:00 13.2 8 Sudoeste 15 Sudoeste 0 974.6 1.4 84
2019-06-14 21:00:00 13.8 12 Oeste 24 Sudoeste 0 974.2 1.4 73
2019-06-14 20:00:00 14.4 13 Oeste 30 Oeste 0 973.7 1.3 69
2019-06-14 19:00:00 15.1 17 Oeste 30 Oeste 0 973.2 0.8 68
2019-06-14 18:00:00 15.6 14 Oeste 32 Oeste 0 972.8 1 65
2019-06-14 17:00:00 16.5 18 Oeste 30 Noroeste 0 972.4 0.5 62
2019-06-14 16:00:00 15.2 18 Oeste 33 Oeste 0 972.4 0.5 69
2019-06-14 15:00:00 16.9 14 Oeste 30 Oeste 0 971.8 0.1 56
2019-06-14 14:00:00 16.8 6 Sudoeste 21 Oeste 0 971.9 0.3 51
2019-06-14 13:00:00 15.3 6 Oeste 21 Sudoeste 0 971.9 0.4 58
2019-06-14 12:00:00 14.4 5 Oeste 13 Sudoeste 0 971.7 0.5 59
2019-06-14 11:00:00 13 3 Norte 9 Norte 0 971.6 0.5 74
2019-06-14 10:00:00 10.3 4 Sudeste 9 Sudeste 0 971.5 0.6 93
2019-06-14 09:00:00 7.5 4 Sudeste -- -- 0 971.2 0.7 100
2019-06-14 08:00:00 6.7 0 Calma 8 Oeste 0 971.1 0.6 100
2019-06-14 07:00:00 4.8 8 Noroeste 13 Noroeste 0 970.9 0.4 100
2019-06-14 06:00:00 4.5 5 Oeste 11 Oeste 0 970.5 -0.4 100
2019-06-14 05:00:00 7.2 4 Sudoeste 9 Sur 0 970.5 -0.7 95
2019-06-14 04:00:00 7.8 2 Norte 4 Norte 0 970.5 -1.1 97
2019-06-14 03:00:00 7.7 0 Calma 8 Norte 0 970.9 -0.6 95
2019-06-14 02:00:00 8.3 6 Norte 9 Norte 0 971.2 -0.2 94
2019-06-14 01:00:00 9.3 5 Norte 13 Norte 0 971.6 0.7 90
2019-06-14 00:00:00 10.1 7 Norte 15 Norte 0 971.5 0.9 85
2019-06-13 23:00:00 10.3 10 Norte 15 Norte 0 971.4 1 88
2019-06-13 22:00:00 12.3 8 Norte 13 Norte 0 970.9 0.5 80
2019-06-13 21:00:00 13.4 10 Norte 17 Norte 0 970.6 0.5 77
2019-06-13 20:00:00 12.8 11 Norte 21 Noroeste 0 970.4 0.4 76
2019-06-13 19:00:00 13.4 15 Norte 28 Norte 0 970.4 0.6 75
2019-06-13 18:00:00 13.4 16 Norte 24 Norte 0 970.1 0.2 76
2019-06-13 17:00:00 13.5 9 Norte 22 Norte 0 970 0.2 71
2019-06-13 16:00:00 15.3 11 Oeste 18 Oeste 0 969.8 0 61
2019-06-13 15:00:00 14.8 7 Oeste 21 Noroeste 0 969.9 -0.1 59
2019-06-13 14:00:00 14.6 5 Noroeste 17 Noroeste 0 969.8 -0.2 61
2019-06-13 13:00:00 14.1 5 Noroeste 18 Sudoeste 0 969.8 -0.2 57
2019-06-13 12:00:00 12.7 6 Noroeste 11 Oeste 0 970 0.2 67
2019-06-13 11:00:00 11.1 5 Noroeste 15 Norte 0 970 0.4 81
2019-06-13 10:00:00 10.9 3 Este 8 Este 0 970 0.3 85
2019-06-13 09:00:00 8.2 4 Sur 9 Sur 0 969.8 0.1 99
2019-06-13 08:00:00 6.7 2 Nordeste 4 Nordeste 0 969.6 -0.3 100
2019-06-13 07:00:00 6.3 4 Sur 9 Noroeste 0 969.7 -0.4 99
2019-06-13 06:00:00 6.9 4 Noroeste 11 Oeste 0 969.7 -0.6 99
2019-06-13 05:00:00 6.6 8 Noroeste 11 Noroeste 0 969.9 -0.8 98
2019-06-13 04:00:00 6.8 5 Noroeste 13 Noroeste 0 970.1 -1 98
2019-06-13 03:00:00 7.3 8 Noroeste 11 Noroeste 0 970.3 -1.3 98
2019-06-13 02:00:00 7.2 8 Norte 11 Norte 0 970.7 -1 96
2019-06-13 01:00:00 8.3 11 Norte 13 Norte 0 971.1 -0.4 93
2019-06-13 00:00:00 9.6 6 Norte 13 Norte 0 971.6 0 86
2019-06-12 23:00:00 10.3 9 Norte 15 Norte 0 971.7 0 85
2019-06-12 22:00:00 10.9 9 Norte 13 Norte 0 971.5 -0.4 85
2019-06-12 21:00:00 11.4 8 Norte 17 Norte 0 971.6 -0.5 85
2019-06-12 20:00:00 11.8 11 Norte 22 Norte 0 971.7 -0.7 84
2019-06-12 19:00:00 12.2 13 Norte 18 Norte 0 971.9 -0.6 83
2019-06-12 18:00:00 13.1 10 Norte 24 Noroeste 0 972.1 -0.8 78
2019-06-12 17:00:00 13.6 6 Norte 17 Noroeste 0 972.4 -1.2 71
2019-06-12 16:00:00 13.6 7 Norte 13 Norte 0 972.5 -1.2 70
2019-06-12 15:00:00 14.2 4 Norte 18 Noroeste 0 972.9 -1.1 66
2019-06-12 14:00:00 12.5 18 Noroeste 28 Noroeste 0 973.6 -0.5 72
2019-06-12 13:00:00 13.4 8 Norte 18 Norte 0 973.7 -0.5 66
2019-06-12 12:00:00 12.3 8 Norte 21 Norte 0 974 -0.5 70
2019-06-12 11:00:00 11.4 13 Noroeste 18 Noroeste 0 974.1 -0.3 77
2019-06-12 10:00:00 10.2 4 Norte 9 Noroeste 0 974.2 -0.2 99
2019-06-12 09:00:00 7.6 0 Calma 11 Nordeste 0 974.5 0.1 100
2019-06-12 08:00:00 7.1 4 Sur 9 Oeste 0 974.4 -0.4 99
2019-06-12 07:00:00 7.4 3 Oeste 5 Oeste 0 974.4 -1 99
2019-06-12 06:00:00 8.6 3 Sudoeste 5 Oeste 0 974.4 -1.7 98
2019-06-12 05:00:00 7.7 2 Oeste 5 Oeste 0 974.8 -1.9 97
2019-06-12 04:00:00 7.8 0 Calma 5 Sudoeste 0 975.4 -1.3 97
2019-06-12 03:00:00 7.8 2 Noroeste 9 Norte 0 976.1 -0.9 96
2019-06-12 02:00:00 9.2 6 Norte 13 Noroeste 0 976.7 -0.3 95
2019-06-12 01:00:00 9.1 8 Norte 13 Norte 0 976.7 -0.3 95
2019-06-12 00:00:00 9.4 11 Norte 18 Norte 0 977 -0.2 93
2019-06-11 23:00:00 10.3 9 Norte 28 Norte 0 977 -0.3 87
2019-06-11 22:00:00 11.5 16 Norte 28 Norte 0 977 -0.4 77
2019-06-11 21:00:00 12.4 13 Norte 33 Norte 0 977.2 -0.1 72
2019-06-11 20:00:00 12.7 13 Norte 30 Norte 0 977.3 0.2 71
2019-06-11 19:00:00 13 15 Norte 39 Norte 0 977.4 0.1 71
2019-06-11 18:00:00 15 17 Norte 33 Norte 0 977.3 -0.1 62
2019-06-11 17:00:00 15 17 Norte 39 Norte 0 977.1 -0.5 62
2019-06-11 16:00:00 15.3 19 Norte 35 Norte 0 977.3 -0.5 62
2019-06-11 15:00:00 14.5 26 Norte 46 Norte 0 977.4 -0.2 66
2019-06-11 14:00:00 13.5 19 Norte 32 Norte 0 977.6 0.3 70
2019-06-11 13:00:00 12.4 16 Norte 41 Norte 0 977.8 0.7 72
2019-06-11 12:00:00 12.5 16 Norte 35 Norte 0 977.6 0.9 72
2019-06-11 11:00:00 11.3 15 Norte 28 Norte 0 977.3 0.8 78
2019-06-11 10:00:00 11.3 13 Norte 30 Norte 0 977.1 1.2 81
2019-06-11 09:00:00 9.8 6 Norte 18 Nordeste 0 976.7 1 93
2019-06-11 08:00:00 8.3 4 Norte 17 Norte 0 976.5 0.8 98
2019-06-11 07:00:00 8.4 11 Norte 26 Norte 0 975.9 0.1 97
2019-06-11 06:00:00 8.8 14 Norte 33 Norte 0.3 975.7 -0.4 96
2019-06-11 05:00:00 9.4 9 Norte 15 Norte 0.8 975.7 -0.6 98
2019-06-11 04:00:00 10.3 9 Norte 18 Norte 0 975.8 -0.8 93
2019-06-11 03:00:00 10.4 10 Norte 13 Norte 0 976.1 -0.7 93
2019-06-11 02:00:00 10.9 6 Norte 11 Norte 0 976.3 -0.4 86
2019-06-11 01:00:00 10.9 4 Norte 11 Norte 0 976.6 0.3 90
2019-06-11 00:00:00 11.2 8 Norte 17 Norte 0 976.8 0.3 87
2019-06-10 23:00:00 11.6 12 Norte 22 Norte 0 976.7 0.5 82
2019-06-10 22:00:00 12 14 Norte 26 Norte 0 976.3 0.2 75
2019-06-10 21:00:00 13 19 Norte 30 Norte 0 976.5 0.2 73
2019-06-10 20:00:00 14.6 18 Noroeste 26 Noroeste 0 976.2 -0.4 67
2019-06-10 19:00:00 15.4 14 Noroeste 26 Norte 0 976.1 -1 64
2019-06-10 18:00:00 16.2 14 Noroeste 26 Norte 0 976.3 -1.1 58
2019-06-10 17:00:00 16.3 11 Noroeste 18 Noroeste 0 976.6 -1.2 59
2019-06-10 16:00:00 15.8 7 Norte 24 Noroeste 0 977.1 -1.5 59
2019-06-10 15:00:00 15.8 8 Norte 22 Norte 0 977.4 -1.2 60
2019-06-10 14:00:00 15.7 9 Oeste 21 Noroeste 0 977.8 -1.1 57
2019-06-10 13:00:00 14.9 11 Norte 21 Norte 0 978.6 -0.4 61
2019-06-10 12:00:00 13.1 4 Oeste 21 Oeste 0 978.6 -0.2 74
2019-06-10 11:00:00 10.3 3 Sur 9 Sudeste 0 978.9 0.3 93
2019-06-10 10:00:00 8.8 4 Sudeste 9 Sudeste 0 979 0.7 100
2019-06-10 09:00:00 7.5 3 Sudeste 8 Nordeste 0 978.8 0.5 100
2019-06-10 08:00:00 6.7 0 Calma 8 Este 0 978.6 0.2 100
2019-06-10 07:00:00 5.9 2 Este 9 Noroeste 0 978.3 -0.3 99
2019-06-10 06:00:00 6.8 9 Noroeste 9 Norte 0 978.3 -0.6 98
2019-06-10 05:00:00 7.3 8 Noroeste 11 Noroeste 0 978.4 -0.8 98
2019-06-10 04:00:00 7.6 7 Noroeste 13 Noroeste 0 978.6 -0.9 97
2019-06-10 03:00:00 8.6 6 Noroeste 11 Noroeste 0 978.9 -0.5 95
2019-06-10 02:00:00 8.1 8 Norte 15 Noroeste 0 979.2 0 94
2019-06-10 01:00:00 8.9 10 Norte 18 Noroeste 0 979.5 0.9 90
2019-06-10 00:00:00 9.2 13 Norte 22 Norte 0 979.4 1 87
2019-06-09 23:00:00 10.5 15 Norte 26 Norte 0 979.2 1.2 78
2019-06-09 22:00:00 12.5 14 Norte 22 Norte 0 978.6 0.8 74
2019-06-09 21:00:00 13.8 14 Norte 26 Norte 0 978.4 0.8 67
2019-06-09 20:00:00 15.5 12 Norte 24 Norte 0 978 0.6 65
2019-06-09 19:00:00 15.3 13 Norte 22 Norte 0 977.8 0.6 69
2019-06-09 18:00:00 15.3 9 Norte 26 Norte 0 977.6 0.3 71
2019-06-09 17:00:00 16.2 13 Norte 22 Norte 0 977.4 0 65
2019-06-09 16:00:00 16.3 11 Norte 24 Norte 0 977.2 -0.4 66
2019-06-09 15:00:00 16.4 16 Noroeste 24 Noroeste 0 977.3 -0.3 63
2019-06-09 14:00:00 15.5 10 Noroeste 22 Noroeste 0 977.4 -0.1 64
2019-06-09 13:00:00 15.4 9 Noroeste 17 Noroeste 0 977.6 0.4 66
2019-06-09 12:00:00 14.5 8 Noroeste 15 Norte 0 977.6 0.5 68
2019-06-09 11:00:00 13.3 4 Este 11 Este 0 977.5 0.5 75
2019-06-09 10:00:00 12.3 5 Norte 13 Norte 0 977.2 0.6 79
2019-06-09 09:00:00 10.2 3 Nordeste 8 Este 0 977.1 0.3 90
2019-06-09 08:00:00 8.3 3 Noroeste 8 Noroeste 0 977 0.1 97
2019-06-09 07:00:00 8.5 6 Norte 11 Norte 0 976.6 -0.5 95
2019-06-09 06:00:00 8.8 4 Noroeste 8 Noroeste 0 976.8 -0.5 93
2019-06-09 05:00:00 8.8 2 Noroeste 8 Noroeste 0 976.9 -0.7 95
2019-06-09 04:00:00 9.1 6 Noroeste 9 Noroeste 0 977.1 -0.8 94
2019-06-09 03:00:00 9.1 7 Oeste 11 Norte 0 977.3 -1.1 94
2019-06-09 02:00:00 9.6 4 Norte 11 Nordeste 0 977.6 -1 92
2019-06-09 01:00:00 9.4 4 Norte 13 Norte 0 977.9 -0.5 91
2019-06-09 00:00:00 9.9 12 Norte 15 Norte 0 978.4 0.3 88
2019-06-08 23:00:00 10.7 10 Norte 18 Norte 0 978.6 0.5 86
2019-06-08 22:00:00 11.7 9 Norte 17 Nordeste 0 978.4 0 79
2019-06-08 21:00:00 13 4 Norte 15 Norte 0 978.1 -0.4 76
2019-06-08 20:00:00 13.7 6 Nordeste 17 Norte 0 978.1 -0.8 69
2019-06-08 19:00:00 14.1 8 Norte 24 Norte 0 978.4 -0.8 70
2019-06-08 18:00:00 14.1 9 Norte 32 Norte 0 978.5 -1 65
2019-06-08 17:00:00 13 16 Norte 30 Norte 0 978.9 -0.7 72
2019-06-08 16:00:00 12.7 14 Norte 26 Norte 0 979.2 -0.5 73
2019-06-08 15:00:00 14.1 16 Norte 24 Noroeste 0 979.5 -0.4 69
2019-06-08 14:00:00 14.3 11 Norte 22 Nordeste 0 979.6 -0.6 67
2019-06-08 13:00:00 14 7 Norte 17 Norte 0 979.7 -0.7 67
2019-06-08 12:00:00 12.4 5 Norte 11 Nordeste 0 979.9 -0.5 73
2019-06-08 11:00:00 11 3 Nordeste 9 Norte 0 980.2 0 83
2019-06-08 10:00:00 9.1 2 Este 8 Este 0 980.4 0.4 90
2019-06-08 09:00:00 6.9 4 Sur 8 Sur 0 980.4 0.1 97
2019-06-08 08:00:00 6 4 Sur 8 Sur 0 980.2 -0.2 99
2019-06-08 07:00:00 6 4 Sur 5 Sur 0 980 -0.5 99
2019-06-08 06:00:00 5.7 5 Sur 8 Sur 0 980.3 -0.2 98
2019-06-08 05:00:00 6.4 5 Sur -- -- 0 980.4 -0.3 97
2019-06-08 04:00:00 6.8 5 Sur -- -- 0 980.5 -0.4 96
2019-06-08 03:00:00 7.7 4 Sur 5 Sur 0 980.5 -0.4 93
2019-06-08 02:00:00 7.6 0 Calma 9 Sudoeste 0 980.7 0.4 93
2019-06-08 01:00:00 8.8 7 Oeste 11 Sudoeste 0 980.9 1.3 89
2019-06-08 00:00:00 9.9 8 Oeste 15 Oeste 0 980.9 1.9 84
2019-06-07 23:00:00 9.9 5 Sur 17 Oeste 0 980.3 1.6 79
2019-06-07 22:00:00 11.1 10 Oeste 18 Oeste 0 979.6 1.3 76
2019-06-07 21:00:00 12.9 16 Oeste 24 Oeste 0 979 1.2 66
2019-06-07 20:00:00 13.4 11 Oeste 24 Oeste 0 978.7 1.1 66
2019-06-07 19:00:00 13.7 17 Oeste 32 Oeste 0 978.3 1.4 63
2019-06-07 18:00:00 13.1 9 Oeste 28 Oeste 0 977.8 1.4 72
2019-06-07 17:00:00 11.5 14 Noroeste 33 Noroeste 0.2 977.6 1.6 80
2019-06-07 16:00:00 13.7 21 Noroeste 30 Oeste 0 976.9 1.9 68
2019-06-07 15:00:00 13 17 Noroeste 30 Oeste 0.4 976.4 2.1 73
2019-06-07 14:00:00 10.4 19 Noroeste 46 Noroeste 1 976 2.3 83
2019-06-07 13:00:00 11.8 16 Sur 24 Sur 0.1 975 1.8 88
2019-06-07 12:00:00 11.1 11 Noroeste 22 Oeste 0.9 974.3 2 85
2019-06-07 11:00:00 12 12 Oeste 28 Oeste 0 973.7 2.4 76
2019-06-07 10:00:00 11.1 15 Oeste 28 Oeste 0 973.2 2.6 82
2019-06-07 09:00:00 9.3 11 Sudoeste 18 Sudoeste 0 972.3 2.6 92
2019-06-07 08:00:00 7.6 7 Sudoeste 15 Sur 0 971.3 2.5 96
2019-06-07 07:00:00 7 9 Sudoeste 26 Sur 0 970.6 2.3 98
2019-06-07 06:00:00 7.3 15 Sudoeste 26 Sudoeste 0 969.7 2.4 96
2019-06-07 05:00:00 7.3 16 Sudoeste 28 Oeste 0.2 968.8 1.9 98
2019-06-07 04:00:00 7.4 17 Sudoeste 30 Sudoeste 0 968.3 2.1 98
2019-06-07 03:00:00 7.7 16 Sudoeste 39 Sudoeste 0.6 967.3 1.8 93
2019-06-07 02:00:00 7.7 19 Sudoeste 32 Sudoeste 0.7 966.9 2.2 91
2019-06-07 01:00:00 8.3 14 Oeste 52 Oeste 1.3 966.2 2.4 93
2019-06-07 00:00:00 8.8 13 Sudoeste 22 Sudoeste 0 965.5 2.7 95
2019-06-06 23:00:00 8.9 13 Sudoeste 33 Oeste 0 964.7 3.1 92
2019-06-06 22:00:00 9.6 15 Sudoeste 32 Oeste 0 963.8 3 85
2019-06-06 21:00:00 10.1 15 Oeste 41 Sudoeste 0 962.8 2.7 86
2019-06-06 20:00:00 10.3 20 Sudoeste 54 Sudoeste 0 961.6 2.4 90
2019-06-06 19:00:00 10.9 26 Sudoeste 52 Oeste 0.2 960.8 2.4 87
2019-06-06 18:00:00 11.2 26 Oeste 52 Oeste 0.3 960.1 2 88
2019-06-06 17:00:00 12.6 28 Sudoeste 61 Oeste 0.1 959.2 -0.5 86
2019-06-06 16:00:00 11.5 19 Sudoeste 59 Sur 6.6 958.4 -2.4 99
2019-06-06 15:00:00 11.1 36 Sur 65 Sudeste 4.4 958.1 -3.4 95
2019-06-06 14:00:00 10.8 32 Sur 58 Sur 3.3 959.7 -3.7 96
2019-06-06 13:00:00 11.3 35 Sur 58 Sur 0.2 960.8 -4.1 91
2019-06-06 12:00:00 11.6 27 Sur 50 Sur 0.4 961.5 -4.8 87
2019-06-06 11:00:00 10.3 26 Sur 42 Sur 0.1 963.4 -3.8 92
2019-06-06 10:00:00 9.2 9 Sudeste 17 Sudeste 0.9 964.9 -3.5 98
2019-06-06 09:00:00 9 5 Sudeste 17 Sur 0.3 966.3 -2.7 97
2019-06-06 08:00:00 8.7 6 Sudeste 18 Sudeste 0.3 967.2 -2.7 99
2019-06-06 07:00:00 8.8 7 Sur 15 Sudeste 0.9 968.4 -2.3 99
2019-06-06 06:00:00 8.7 6 Sur 11 Sur 0.2 969 -2.6 99
2019-06-06 05:00:00 8.5 5 Sur 9 Sur 0.2 969.9 -2 100
2019-06-06 04:00:00 8.8 2 Este 9 Sudoeste 0.1 970.7 -1.8 99
2019-06-06 03:00:00 8.8 7 Sur 15 Sur 1.8 971.6 -1.4 98
2019-06-06 02:00:00 8.9 6 Sur 9 Sur 0 971.9 -1.1 97
2019-06-06 01:00:00 8.9 5 Sur 9 Sur 0.2 972.5 -0.4 96
2019-06-06 00:00:00 9.5 5 Sur 26 Sudoeste 0 973 0.2 89
2019-06-05 23:00:00 10.2 9 Sudoeste 17 Sudoeste 0 973 0.4 84
2019-06-05 22:00:00 10.9 8 Sudoeste 22 Oeste 0 972.9 0.2 78
2019-06-05 21:00:00 11.6 12 Oeste 26 Sudoeste 0 972.8 0.1 70
2019-06-05 20:00:00 12.6 17 Sudoeste 30 Sudoeste 0 972.6 -0.6 63
2019-06-05 19:00:00 13.5 19 Oeste 33 Oeste 0 972.7 -0.7 65
2019-06-05 18:00:00 13.6 18 Oeste 30 Oeste 0 972.7 -0.5 67
2019-06-05 17:00:00 10.6 14 Sudoeste 28 Oeste 3.1 973.2 0.2 82
2019-06-05 16:00:00 11.5 17 Noroeste 32 Noroeste 0.2 973.4 0.5 87
2019-06-05 15:00:00 11.6 23 Noroeste 42 Noroeste 0.3 973.2 0.2 79
2019-06-05 14:00:00 14.6 18 Oeste 35 Oeste 0 973 0.1 53
2019-06-05 13:00:00 13.8 18 Oeste 37 Noroeste 0 972.9 0.1 59
2019-06-05 12:00:00 13.4 16 Noroeste 26 Noroeste 0 973 0.6 69
2019-06-05 11:00:00 12.3 12 Oeste 21 Noroeste 0 972.9 1 76
2019-06-05 10:00:00 11.1 10 Noroeste 21 Noroeste 0 972.8 1.2 86
2019-06-05 09:00:00 10 10 Oeste 22 Oeste 0 972.4 1.2 91
2019-06-05 08:00:00 9.1 6 Oeste 13 Oeste 0 971.9 0.7 96
2019-06-05 07:00:00 8.6 5 Oeste 26 Oeste 0 971.6 0.4 96
2019-06-05 06:00:00 9.1 6 Oeste 13 Oeste 0 971.2 -0.2 96
2019-06-05 05:00:00 9 5 Oeste 11 Oeste 0 971.2 -0.3 96
2019-06-05 04:00:00 8.8 6 Oeste 11 Oeste 0 971.2 -0.3 95
2019-06-05 03:00:00 9 6 Oeste 9 Oeste 0 971.4 -0.3 95
2019-06-05 02:00:00 8.9 4 Oeste 11 Noroeste 0 971.5 0.1 97
2019-06-05 01:00:00 9.8 5 Noroeste 13 Oeste 0 971.5 0.7 95
2019-06-05 00:00:00 10.2 7 Oeste 17 Noroeste 0.3 971.7 1.1 94
2019-06-04 23:00:00 11.1 6 Oeste 22 Noroeste 0 971.4 1 87
2019-06-04 22:00:00 11.6 14 Noroeste 26 Noroeste 0 970.8 0.6 83
2019-06-04 21:00:00 13 14 Oeste 24 Oeste 2.3 970.6 0.2 76
2019-06-04 20:00:00 13.3 9 Oeste 30 Noroeste 0.6 970.4 -0.1 77
2019-06-04 19:00:00 14 13 Oeste 32 Noroeste 0 970.2 -0.2 74
2019-06-04 18:00:00 13 17 Noroeste 28 Oeste 0.8 970.4 0.1 84
2019-06-04 17:00:00 12.9 12 Noroeste 37 Noroeste 0.1 970.5 0.3 83
2019-06-04 16:00:00 15.1 19 Oeste 39 Oeste 0 970.4 0.5 74
2019-06-04 15:00:00 13.8 23 Oeste 39 Oeste 0.1 970.3 0.4 83
2019-06-04 14:00:00 15.5 18 Oeste 30 Oeste 0 970.2 0.7 68
2019-06-04 13:00:00 16 14 Oeste 26 Oeste 0 969.9 0.9 61
2019-06-04 12:00:00 14.2 14 Oeste 26 Noroeste 0 969.9 1.8 71
2019-06-04 11:00:00 14.1 15 Noroeste 26 Oeste 0 969.5 2.2 76
2019-06-04 10:00:00 13.2 18 Noroeste 35 Noroeste 0 969 2 87
2019-06-04 09:00:00 13.1 18 Noroeste 32 Oeste 0.7 968.1 0.6 97
2019-06-04 08:00:00 12.5 15 Sur 37 Sur 2.6 967.3 -0.5 100
2019-06-04 07:00:00 12.6 18 Sur 37 Sur 0.3 967 -1.3 99
2019-06-04 06:00:00 13 14 Sur 32 Sur 0 967.5 -1.6 94
2019-06-04 05:00:00 13.1 21 Sudoeste 37 Sudoeste 0 967.8 -2.5 88
2019-06-04 04:00:00 12.3 12 Sur 24 Sur 0 968.3 -3 88
2019-06-04 03:00:00 12.1 7 Sur -- -- -- 969.1 -2.8 89
2019-06-04 02:00:00 12 6 Sur 11 Sudeste 0 970.3 -2.1 94
2019-06-04 01:00:00 12.8 6 Sur 15 Sur 0 971.3 -0.8 92
2019-06-04 00:00:00 12.9 8 Sur 18 Sudoeste 0 971.9 -0.4 90
2019-06-03 23:00:00 13.6 10 Sudoeste 24 Sudoeste 0 972.4 0 86
2019-06-03 22:00:00 14.3 10 Sudoeste 21 Sudoeste 0 972.1 -0.8 82
2019-06-03 21:00:00 15.5 10 Sudoeste 22 Sur 0 972.3 -0.9 83
2019-06-03 20:00:00 16.4 12 Sudoeste 22 Oeste 0 972.4 -0.7 83
2019-06-03 19:00:00 16.7 13 Sudoeste 26 Sudoeste 0 972.9 -0.3 83
2019-06-03 18:00:00 17.3 16 Oeste 30 Sudoeste 0 973.2 -0.5 84
2019-06-03 17:00:00 18.9 19 Sudoeste 35 Sudoeste 0 973.1 -0.9 82
2019-06-03 16:00:00 18.7 20 Sudoeste 30 Oeste 0 973.2 -1.3 84
2019-06-03 15:00:00 18.1 17 Sur 30 Sudoeste 0 973.7 -1 88
2019-06-03 14:00:00 17.1 12 Sudoeste 21 Oeste 0.2 974 -0.7 97
2019-06-03 13:00:00 16.5 11 Sudoeste 21 Sudoeste 0.6 974.5 -0.1 99
2019-06-03 12:00:00 15.9 10 Sur 21 Sur 0.6 974.7 0.3 100
2019-06-03 11:00:00 15.5 10 Sur 17 Sur 0.3 974.7 0.5 100
2019-06-03 10:00:00 15.2 8 Sur 18 Sudoeste 0.4 974.6 0.5 100
2019-06-03 09:00:00 14.9 9 Sur 15 Sur 1 974.4 0.5 100
2019-06-03 08:00:00 14.9 10 Sur 15 Sur 0.1 974.2 0.1 100
2019-06-03 07:00:00 14.9 9 Sur 13 Sur 0 974.1 -0.5 100
2019-06-03 06:00:00 14.9 10 Sur 15 Sur 0.1 973.9 -0.9 100
2019-06-03 05:00:00 14.9 8 Sur 13 Sur 0 974.1 -1.3 100
2019-06-03 04:00:00 14.7 8 Sur 13 Sur 0 974.6 -1.3 100
2019-06-03 03:00:00 14.6 9 Sur 15 Sur 0 974.8 -1.2 98
2019-06-03 02:00:00 15 10 Sur 15 Sudoeste 0 975.4 -0.5 94
2019-06-03 01:00:00 15.4 10 Sudoeste 15 Sudoeste 0 975.9 0.5 89
2019-06-03 00:00:00 15.5 8 Sudoeste 13 Sudoeste 0 976 1 89
2019-06-02 23:00:00 16 5 Oeste 18 Sur 0 975.9 1 81
2019-06-02 22:00:00 16.8 11 Sudoeste 18 Sudoeste 0 975.4 0.4 69
2019-06-02 21:00:00 18.5 5 Sudoeste 18 Oeste 0 975 -0.1 72
2019-06-02 20:00:00 19.6 12 Oeste 17 Sudoeste 0 974.9 -0.4 62
2019-06-02 19:00:00 20.8 9 Sudoeste 21 Sudoeste 0 975 -0.2 52
2019-06-02 18:00:00 21.8 10 Sudoeste 18 Sudoeste 0 975.1 -0.4 48
2019-06-02 17:00:00 22.2 12 Sudoeste 22 Sudoeste 0 975.3 -0.5 44
2019-06-02 16:00:00 22.9 15 Sudoeste 26 Sur 0 975.2 -0.7 47
2019-06-02 15:00:00 22.1 12 Sudoeste 28 Sur 0 975.5 -0.3 52
2019-06-02 14:00:00 21.3 12 Sudoeste 26 Sur 0 975.8 0.3 53
2019-06-02 13:00:00 19.1 13 Sur 26 Sudoeste 0 975.9 0.8 59
2019-06-02 12:00:00 17.9 14 Sudoeste 26 Sudoeste 0 975.8 0.9 62
2019-06-02 11:00:00 17.1 9 Sudoeste 26 Sudoeste 0 975.5 1 65
2019-06-02 10:00:00 15.3 10 Sur 15 Sur 0 975.1 0.7 72
2019-06-02 09:00:00 16 6 Sur 11 Sur 0 974.9 0.5 59
2019-06-02 08:00:00 12.9 9 Sur 13 Sur 0 974.5 -0.1 76
2019-06-02 07:00:00 12.3 7 Sudeste 11 Sur 0 974.4 -0.5 77
2019-06-02 06:00:00 13.6 6 Sur 13 Sudoeste 0 974.4 -1 68
2019-06-02 05:00:00 14.2 7 Sur 13 Sur 0 974.6 -1.2 70
2019-06-02 04:00:00 14.8 7 Sur 9 Sur 0 974.9 -1.1 64
2019-06-02 03:00:00 15.7 0 Calma 9 Sur 0 975.4 -0.7 62
2019-06-02 02:00:00 17.4 2 Sudeste 8 Sur 0 975.8 -0.1 51
2019-06-02 01:00:00 18.5 3 Sudeste 8 Sur 0 976 0.3 47
2019-06-02 00:00:00 19.6 5 Sudeste 11 Sudoeste 0 976.1 0.6 45
2019-06-01 23:00:00 21.2 7 Sudoeste 15 Sur 0 975.9 0.5 40
2019-06-01 22:00:00 22.1 12 Sudoeste 15 Sudoeste 0 975.7 0.6 45
2019-06-01 21:00:00 25.1 10 Oeste 22 Sudoeste 0 975.5 0.2 37
2019-06-01 20:00:00 26.5 9 Oeste 26 Oeste 0 975.4 -0.1 33
2019-06-01 19:00:00 28.2 15 Oeste 28 Noroeste 0 975.1 -0.7 25
2019-06-01 18:00:00 28.7 16 Sudoeste 32 Oeste 0 975.3 -0.7 31
2019-06-01 17:00:00 29.2 18 Sudoeste 32 Sudoeste 0 975.5 -1 34
2019-06-01 16:00:00 29.3 17 Oeste 30 Oeste 0 975.8 -0.9 31
2019-06-01 15:00:00 28.9 8 Oeste 26 Oeste 0 976 -0.7 34
2019-06-01 14:00:00 28.3 9 Sudoeste 21 Oeste 0 976.5 -0.1 32
2019-06-01 13:00:00 27.4 7 Oeste 15 Oeste 0 976.7 0.2 43
2019-06-01 12:00:00 25 5 Sudeste 13 Sur 0 976.7 0.5 53
2019-06-01 11:00:00 23.1 5 Sudeste 9 Este 0 976.6 0.4 61
2019-06-01 10:00:00 20.7 3 Sudeste 9 Sur 0 976.5 0.6 63
2019-06-01 09:00:00 18.5 5 Sur 8 Noroeste 0 976.2 0.5 69
2019-06-01 08:00:00 15.8 3 Sur 5 Noroeste 0 976.2 0.3 76
2019-06-01 07:00:00 14.8 0 Calma 5 Oeste 0 975.9 -0.3 75
2019-06-01 06:00:00 15.9 0 Calma 4 Noroeste 0 975.7 -0.8 72
2019-06-01 05:00:00 18.2 0 Calma 8 Sur 0 975.9 -0.9 64
2019-06-01 04:00:00 18.6 6 Sur 8 Sur 0 976.2 -1.2 61
2019-06-01 03:00:00 19.5 4 Sur 8 Sur 0 976.5 -1.2 58
2019-06-01 02:00:00 20.2 4 Sur 8 Sudeste 0 976.8 -0.7 55
2019-06-01 01:00:00 21.3 4 Sur 5 Sur 0 977.4 0 49
2019-06-01 00:00:00 21.8 2 Sudeste 5 Sur 0 977.7 0.5 50
2019-05-31 23:00:00 22.1 0 Calma 13 Norte 0 977.5 0.6 51
2019-05-31 22:00:00 23.6 8 Norte 22 Oeste 0 977.4 0.3 52
2019-05-31 21:00:00 26.6 2 Este 15 Sudoeste 0 977.2 0.2 34
2019-05-31 20:00:00 28.2 7 Oeste 21 Sudoeste 0 976.9 -0.3 29
2019-05-31 19:00:00 28.6 8 Sudoeste 26 Oeste 0 977.1 -0.1 28
2019-05-31 18:00:00 29.6 16 Sudoeste 28 Sudoeste 0 977 -0.7 32
2019-05-31 17:00:00 31 15 Oeste 28 Oeste 0 977.2 -0.8 31
2019-05-31 16:00:00 32.1 11 Sudoeste 26 Sudoeste 0 977.2 -1 25
2019-05-31 15:00:00 31.7 11 Oeste 21 Oeste 0 977.7 -0.5 26
2019-05-31 14:00:00 31.4 8 Sur 21 Sudoeste 0 978 -0.3 27
2019-05-31 13:00:00 30.1 8 Sur 15 Sur 0 978.2 0 34
2019-05-31 12:00:00 28.3 9 Sur 18 Sur 0 978.2 0 38
2019-05-31 11:00:00 26.2 9 Sudeste 18 Sudeste 0 978.3 0.1 45
2019-05-31 10:00:00 23.4 9 Sudeste 17 Sudeste 0 978.2 0.2 53
2019-05-31 09:00:00 20.6 8 Sudeste 15 Sudeste 0 978.2 0.3 59
2019-05-31 08:00:00 19.4 8 Sudeste 13 Sudeste 0 978.2 0.1 60
2019-05-31 07:00:00 17.6 4 Este 9 Sudeste 0 978 -0.4 66
2019-05-31 06:00:00 17.8 5 Sudeste 11 Este 0 977.9 -1.1 64
2019-05-31 05:00:00 18.6 4 Sudeste 9 Este 0 978.1 -1.5 60
2019-05-31 04:00:00 18.5 6 Sudeste 11 Sudeste 0 978.4 -1.5 60
2019-05-31 03:00:00 19.1 5 Sudeste 9 Sudeste 0 979 -1.3 58
2019-05-31 02:00:00 20.2 7 Sudeste 11 Sudeste 0 979.6 -0.5 52
2019-05-31 01:00:00 20.4 2 Este 8 Este 0 979.9 0.3 56
2019-05-31 00:00:00 21.3 2 Este 11 Nordeste 0 980.3 0.8 53
2019-05-30 23:00:00 22.8 8 Norte 18 Norte 0 980.1 0.8 46
2019-05-30 22:00:00 24.1 14 Norte 21 Norte 0 979.6 0.1 42
2019-05-30 21:00:00 26.3 9 Norte 28 Norte 0 979.5 -0.2 42
2019-05-30 20:00:00 27.9 13 Norte 24 Norte 0 979.3 -0.8 41
2019-05-30 19:00:00 29.7 11 Norte 26 Norte 0 979.5 -0.8 33
2019-05-30 18:00:00 30.6 11 Norte 22 Norte 0 979.7 -0.9 32
2019-05-30 17:00:00 30.6 5 Nordeste 18 Norte 0 980.1 -0.8 36
2019-05-30 16:00:00 29.7 6 Noroeste 17 Norte 0 980.3 -0.8 36
2019-05-30 15:00:00 29.1 5 Nordeste 15 Norte 0 980.6 -0.5 38
2019-05-30 14:00:00 28.2 6 Sur 18 Sur 0 980.9 -0.3 41
2019-05-30 13:00:00 27 4 Sudeste 13 Sur 0 981.1 0 44
2019-05-30 12:00:00 24.8 6 Sudeste 13 Sudeste 0 981.1 0.2 50
2019-05-30 11:00:00 22.3 8 Sudeste 15 Sudeste 0 981.2 0.4 57
2019-05-30 10:00:00 19.6 10 Sudeste 17 Sudeste 0 981.1 0.6 62
2019-05-30 09:00:00 18.1 6 Sudeste 11 Este 0 980.9 0.4 66
2019-05-30 08:00:00 14.9 0 Calma 5 Este 0 980.8 0.3 75
2019-05-30 07:00:00 14 2 Nordeste 9 Este 0 980.5 0 78
2019-05-30 06:00:00 13.6 3 Este 8 Este 0 980.5 -0.4 82
2019-05-30 05:00:00 13.9 0 Calma 5 Norte 0 980.5 -0.9 80
2019-05-30 04:00:00 13.8 0 Calma 9 Nordeste 0 980.5 -0.9 84
2019-05-30 03:00:00 13.9 0 Calma 9 Norte 0 980.9 -0.6 86
2019-05-30 02:00:00 15.2 4 Norte 9 Este 0 981.4 0.1 80
2019-05-30 01:00:00 16.5 3 Nordeste 15 Nordeste 0 981.4 0.5 76
2019-05-30 00:00:00 17.6 6 Norte 17 Norte 0 981.5 0.9 72
2019-05-29 23:00:00 17.8 12 Norte 22 Norte 0 981.3 0.9 76
2019-05-29 22:00:00 19.4 17 Norte 28 Norte 0 980.9 0.6 70
2019-05-29 21:00:00 21.8 15 Norte 26 Norte 0 980.6 0.2 63
2019-05-29 20:00:00 23.4 11 Norte 26 Norte 0 980.4 -0.3 58
2019-05-29 19:00:00 24.6 10 Norte 24 Norte 0 980.3 -0.5 56
2019-05-29 18:00:00 25.6 11 Norte 28 Norte 0 980.4 -0.7 52
2019-05-29 17:00:00 25.3 13 Norte 26 Nordeste 0 980.7 -0.6 52
2019-05-29 16:00:00 24.4 15 Norte 28 Norte 0 980.8 -0.7 53
2019-05-29 15:00:00 24.5 6 Nordeste 24 Este 0 981.1 -0.4 47
2019-05-29 14:00:00 23.7 7 Este 26 Este 0 981.3 -0.4 48
2019-05-29 13:00:00 22.2 7 Este 21 Este 0 981.5 -0.2 51
2019-05-29 12:00:00 19.9 7 Este 18 Este 0 981.5 -0.1 57
2019-05-29 11:00:00 16.6 6 Nordeste 17 Nordeste 0 981.7 0.1 66
2019-05-29 10:00:00 13.8 5 Nordeste 13 Nordeste 0 981.7 0.2 73
2019-05-29 09:00:00 11.3 4 Nordeste 11 Noroeste 0 981.6 -0.2 80
2019-05-29 08:00:00 9.4 3 Norte 11 Este 0 981.6 -0.2 86
2019-05-29 07:00:00 9 4 Nordeste 15 Norte 0 981.5 -0.1 86
2019-05-29 06:00:00 8.5 3 Norte 17 Nordeste 0 981.8 -0.1 91
2019-05-29 05:00:00 8.8 6 Norte 15 Nordeste 0 981.8 -0.3 90
2019-05-29 04:00:00 9 3 Nordeste 15 Nordeste 0 981.6 -0.3 90
2019-05-29 03:00:00 9.5 5 Norte 18 Norte 0 981.9 0.3 88
2019-05-29 02:00:00 9.9 6 Norte 18 Nordeste 0 982.1 0.6 88
2019-05-29 01:00:00 10.6 9 Norte 21 Norte 0 981.9 0.9 87
2019-05-29 00:00:00 11.1 8 Norte 22 Norte 0 981.6 1.2 89
2019-05-28 23:00:00 11.9 8 Norte 26 Norte 0 981.5 1.5 87
2019-05-28 22:00:00 13.4 12 Norte 26 Norte 0 981 1.2 80
2019-05-28 21:00:00 15 14 Norte 32 Norte 0 980.4 0.9 72
2019-05-28 20:00:00 16.6 16 Norte 39 Norte 0 980 0.5 65
2019-05-28 19:00:00 17.6 21 Norte 39 Norte 0 979.8 0.3 62
2019-05-28 18:00:00 18.6 19 Norte 37 Norte 0 979.5 -0.1 58
2019-05-28 17:00:00 19 16 Norte 37 Nordeste 0 979.5 -0.1 58
2019-05-28 16:00:00 19.3 13 Norte 33 Nordeste 0 979.5 -0.1 58
2019-05-28 15:00:00 18.7 18 Norte 32 Norte 0 979.6 0.1 56
2019-05-28 14:00:00 17.9 14 Norte 33 Norte 0 979.6 0.1 59
2019-05-28 13:00:00 17.2 14 Norte 32 Norte 0 979.6 0.3 61
2019-05-28 12:00:00 15.9 14 Norte 30 Norte 0 979.5 0.3 63
2019-05-28 11:00:00 14.4 11 Nordeste 26 Nordeste 0 979.5 0.7 72
2019-05-28 10:00:00 12.2 8 Nordeste 18 Este 0 979.3 0.9 81
2019-05-28 09:00:00 10.1 5 Norte 18 Norte 0 979.2 1.1 90
2019-05-28 08:00:00 8.5 7 Norte 15 Nordeste 0 978.8 0.9 96
2019-05-28 07:00:00 8.1 5 Norte 21 Norte 0 978.4 0.5 96
2019-05-28 06:00:00 8.6 8 Norte 21 Nordeste 0 978.1 0.3 93
2019-05-28 05:00:00 8.8 8 Norte 22 Norte 0 977.9 -0.1 93
2019-05-28 04:00:00 8.8 8 Norte 24 Norte 0 977.9 -0.4 92
2019-05-28 03:00:00 9.1 9 Norte 28 Norte 0 977.8 -0.5 91
2019-05-28 02:00:00 9.3 13 Norte 24 Norte 0 978 0.1 90
2019-05-28 01:00:00 9.7 13 Norte 30 Norte 0 978.3 1 91
2019-05-28 00:00:00 10 12 Norte 28 Norte 0 978.3 1.1 91
2019-05-27 23:00:00 10.6 15 Norte 32 Norte 0 977.9 1.2 87
2019-05-27 22:00:00 11.5 18 Norte 30 Norte 0 977.3 1.1 85
2019-05-27 21:00:00 12.9 17 Norte 37 Norte 0 977.2 1 80
2019-05-27 20:00:00 14.1 29 Norte 41 Norte 0 976.7 0.2 76
2019-05-27 19:00:00 16.4 21 Norte 39 Noroeste 0 976.2 -0.2 71
2019-05-27 18:00:00 17.6 17 Norte 41 Norte 0 976.2 -0.6 68
2019-05-27 17:00:00 17.6 21 Norte 37 Norte 0 976.5 -0.5 70
2019-05-27 16:00:00 17.8 21 Norte 50 Norte 0 976.4 -1.3 69
2019-05-27 15:00:00 18.2 19 Norte 45 Norte 0 976.8 -0.7 65
2019-05-27 14:00:00 17.7 12 Norte 26 Norte 0 977 -0.2 69
2019-05-27 13:00:00 16.2 10 Norte 28 Norte 0 977.7 0.3 78
2019-05-27 12:00:00 15.1 15 Norte 28 Norte 0 977.5 0.6 86
2019-05-27 11:00:00 14 9 Norte 21 Norte 0 977.2 0.7 97
2019-05-27 10:00:00 13.3 8 Norte 15 Norte 0 977.4 0.6 100
2019-05-27 09:00:00 12.4 0 Calma 5 Sudeste 0 976.9 0.3 100
2019-05-27 08:00:00 12 3 Sudeste 5 Sudeste 0 976.5 -0.4 100
2019-05-27 07:00:00 12.1 2 Norte 5 Sudeste 0 976.8 -0.6 99
2019-05-27 06:00:00 12 2 Sudeste 5 Este 0 976.6 -1.2 98
2019-05-27 05:00:00 12 3 Norte 18 Norte 0 976.9 -1.4 98
2019-05-27 04:00:00 11.9 4 Norte 15 Norte 0 977.4 -1.7 98
2019-05-27 03:00:00 11.9 5 Norte 17 Nordeste 0 977.8 -1.3 95
2019-05-27 02:00:00 11.7 6 Norte 21 Norte 0 978.3 -0.7 96
2019-05-27 01:00:00 11.6 12 Norte 21 Norte 0 979.1 0.3 96
2019-05-27 00:00:00 11.8 8 Norte 18 Norte 0 979.1 0.9 94
2019-05-26 23:00:00 12 6 Norte 32 Norte 0 979 0.8 92
2019-05-26 22:00:00 12.9 21 Norte 30 Norte 0 978.8 0.4 88
2019-05-26 21:00:00 14.9 15 Norte 33 Norte 0 978.2 -0.4 80
2019-05-26 20:00:00 17.3 17 Norte 32 Norte 0 978.2 -0.7 73
2019-05-26 19:00:00 19.4 15 Norte 30 Norte 0 978.4 -0.7 67
2019-05-26 18:00:00 20.3 21 Norte 41 Norte 0 978.6 -1 64
2019-05-26 17:00:00 21.5 17 Norte 33 Norte 0 978.9 -1.1 63
2019-05-26 16:00:00 21.2 11 Norte 28 Norte 0 979.1 -1.3 60
2019-05-26 15:00:00 20.5 9 Norte 26 Nordeste 0 979.6 -1.3 62
2019-05-26 14:00:00 19.3 13 Norte 30 Norte 0 980 -1.1 63
2019-05-26 13:00:00 17.2 12 Norte 24 Norte 0 980.4 -0.6 68
2019-05-26 12:00:00 15.1 9 Norte 22 Norte 0 980.9 -0.1 76
2019-05-26 11:00:00 13.3 14 Norte 26 Norte 0 981.1 0.4 83
2019-05-26 10:00:00 11.9 6 Nordeste 18 Nordeste 0 981 0.4 88
2019-05-26 09:00:00 10.1 4 Norte 15 Norte 0 981 0.2 94
2019-05-26 08:00:00 8.8 3 Este 17 Norte 0 980.7 0 98
2019-05-26 07:00:00 8.7 5 Norte 17 Norte 0 980.6 -0.3 98
2019-05-26 06:00:00 9.3 5 Nordeste 21 Norte 0 980.8 -0.3 97
2019-05-26 05:00:00 9.2 4 Norte 17 Norte 0 980.7 -0.9 97
2019-05-26 04:00:00 9.4 5 Norte 17 Norte 0 980.9 -0.9 98
2019-05-26 03:00:00 10 7 Norte 18 Nordeste 0 981.1 -0.9 97
2019-05-26 02:00:00 10.3 8 Norte 22 Norte 0 981.6 0 95
2019-05-26 01:00:00 10.7 14 Norte 28 Norte 0 981.8 0.5 92
2019-05-26 00:00:00 11.3 13 Norte 24 Norte 0 982 1 89
2019-05-25 23:00:00 12.1 13 Norte 24 Norte 0 981.6 1.2 85
2019-05-25 22:00:00 13.4 15 Norte 28 Norte 0 981.3 0.8 80
2019-05-25 21:00:00 15.6 14 Norte 30 Norte 0 981 0.9 74
2019-05-25 20:00:00 16.9 19 Norte 35 Norte 0 980.4 0.2 71
2019-05-25 19:00:00 18.7 20 Norte 39 Noroeste 0 980.5 0.3 67
2019-05-25 18:00:00 20.2 16 Norte 32 Norte 0 980.1 -0.6 62
2019-05-25 17:00:00 20.1 13 Norte 33 Norte 0 980.2 -0.6 61
2019-05-25 16:00:00 20.1 11 Norte 33 Norte 0 980.2 -1.1 61
2019-05-25 15:00:00 19.9 15 Norte 33 Norte 0 980.7 -0.6 61
2019-05-25 14:00:00 18.6 11 Norte 28 Norte 0 980.8 -0.8 65
2019-05-25 13:00:00 17 12 Norte 26 Norte 0 981.3 -0.1 68
2019-05-25 12:00:00 16 12 Norte 26 Norte 0 981.3 -0.3 70
2019-05-25 11:00:00 14.8 8 Nordeste 24 Norte 0 981.6 0.2 70
2019-05-25 10:00:00 13.2 7 Nordeste 24 Nordeste 0 981.4 0.5 78
2019-05-25 09:00:00 11.3 6 Norte 22 Norte 0 981.6 1 92
2019-05-25 08:00:00 10.3 9 Norte 18 Norte 0 981.4 0.6 96
2019-05-25 07:00:00 10.1 4 Norte 15 Norte 0 980.9 0 97
2019-05-25 06:00:00 10.2 7 Norte 22 Norte 0 980.6 -0.3 96
2019-05-25 05:00:00 10.3 9 Norte 21 Nordeste 0 980.8 -0.3 96
2019-05-25 04:00:00 10.2 8 Norte 18 Norte 0 980.9 -0.2 97
2019-05-25 03:00:00 10.1 6 Norte 17 Norte 0 980.9 -0.1 95
2019-05-25 02:00:00 10.5 8 Norte 24 Norte 0 981.1 0.9 91
2019-05-25 01:00:00 10.9 7 Norte 21 Norte 0 981.1 1.4 90
2019-05-25 00:00:00 11.6 8 Norte 21 Nordeste 0 981 1.7 87
2019-05-24 23:00:00 12.2 10 Norte 26 Norte 0 980.2 1.3 86
2019-05-24 22:00:00 13.1 12 Norte 30 Norte 0 979.7 1 85
2019-05-24 21:00:00 15 16 Norte 33 Norte 0 979.3 0.6 77
2019-05-24 20:00:00 16.2 20 Norte 41 Noroeste 0 978.9 0 73
2019-05-24 19:00:00 16.9 17 Norte 39 Norte 0 978.7 -0.7 71
2019-05-24 18:00:00 17.8 17 Norte 39 Norte 0 978.7 -1 66
2019-05-24 17:00:00 17.6 13 Norte 42 Norte 0 978.9 -0.6 65
2019-05-24 16:00:00 17.7 17 Norte 32 Norte 0 979.4 -0.4 62
2019-05-24 15:00:00 15.7 12 Norte 32 Norte 0 979.7 -0.1 68
2019-05-24 14:00:00 16.1 15 Norte 35 Norte 0 979.5 -0.3 66
2019-05-24 13:00:00 14.6 8 Norte 32 Norte 0 979.8 -0.2 71
2019-05-24 12:00:00 14.2 9 Norte 28 Norte 0 979.8 0.1 71
2019-05-24 11:00:00 13.1 9 Nordeste 22 Este 0 979.8 0.5 76
2019-05-24 10:00:00 11.6 7 Norte 17 Norte 0 980 1 88
2019-05-24 09:00:00 9.6 4 Norte 11 Nordeste 0 979.7 1.1 97
2019-05-24 08:00:00 7.9 3 Norte 5 Norte 0 979.3 0.7 99
2019-05-24 07:00:00 8.2 0 Calma 8 Este 0 979 0.5 99
2019-05-24 06:00:00 8.2 0 Calma 4 Este 0 978.6 -0.3 100
2019-05-24 05:00:00 8.7 2 Sudeste 5 Nordeste 0 978.6 -0.7 99
2019-05-24 04:00:00 8.8 0 Calma 13 Norte 0 978.5 -0.8 98
2019-05-24 03:00:00 9.7 9 Norte 17 Norte 0 978.9 -0.4 97
2019-05-24 02:00:00 9.9 13 Norte 21 Norte 0 979.3 0.1 96
2019-05-24 01:00:00 10.1 12 Norte 18 Norte 0 979.3 0.5 96
2019-05-24 00:00:00 10.3 8 Norte 17 Norte 0 979.3 0.6 91
2019-05-23 23:00:00 11.2 13 Norte 21 Norte 0 979.2 1 86
2019-05-23 22:00:00 12.4 11 Norte 22 Norte 0 978.8 0.9 80
2019-05-23 21:00:00 13.7 17 Norte 30 Norte 0 978.7 1.1 73
2019-05-23 20:00:00 15.2 24 Norte 33 Norte 0 978.2 0.8 70
2019-05-23 19:00:00 16.5 21 Norte 37 Norte 0 977.9 0.9 66
2019-05-23 18:00:00 17.8 23 Norte 33 Norte 0 977.6 0.2 57
2019-05-23 17:00:00 19.1 18 Noroeste 30 Noroeste 0 977.4 -0.1 53
2019-05-23 16:00:00 19.2 16 Norte 26 Noroeste 0 977 -0.8 52
2019-05-23 15:00:00 18.7 12 Noroeste 28 Norte 0 977.4 -0.4 52
2019-05-23 14:00:00 17.9 13 Noroeste 26 Noroeste 0 977.5 -0.2 57
2019-05-23 13:00:00 16.8 10 Oeste 22 Norte 0 977.8 0.3 63
2019-05-23 12:00:00 16.4 13 Noroeste 24 Oeste 0 977.8 1.1 66
2019-05-23 11:00:00 14.8 9 Noroeste 21 Noroeste 0 977.7 1.4 84
2019-05-23 10:00:00 12.4 4 Sudoeste 13 Oeste 0 977.5 1.6 97
2019-05-23 09:00:00 11.5 6 Sur 13 Sudoeste 0 976.7 1 99
2019-05-23 08:00:00 11.3 4 Oeste 8 Sudoeste 0 976.3 0.2 97
2019-05-23 07:00:00 10.9 5 Sur 9 Sur 0 975.9 0 96
2019-05-23 06:00:00 10.9 9 Sur 11 Sur 0 975.7 -0.5 96
2019-05-23 05:00:00 11.7 6 Oeste 11 Oeste 0 976.1 -0.3 91
2019-05-23 04:00:00 11.1 5 Oeste 9 Oeste 0 975.9 -0.6 90
2019-05-23 03:00:00 11.2 0 Calma -- -- 0 976.2 -0.5 88
2019-05-23 02:00:00 11.7 6 Oeste 8 Oeste 0 976.4 0.1 83
2019-05-23 01:00:00 12.6 0 Calma 9 Oeste 0 976.5 0.8 79
2019-05-23 00:00:00 12.8 8 Oeste 11 Oeste 0 976.7 1.5 77
2019-05-22 23:00:00 14.3 5 Norte 11 Noroeste 0 976.3 1.4 71
2019-05-22 22:00:00 16.4 3 Nordeste 15 Oeste 0 975.7 1.1 68
2019-05-22 21:00:00 19.7 8 Oeste 21 Noroeste 0 975.2 0.6 59
2019-05-22 20:00:00 21 14 Oeste 24 Oeste 0 974.9 0.3 57
2019-05-22 19:00:00 21.9 14 Oeste 26 Oeste 0 974.6 0 54
2019-05-22 18:00:00 22.7 14 Sudoeste 32 Oeste 0 974.6 -0.1 50
2019-05-22 17:00:00 22.9 13 Sudoeste 30 Sudoeste 0 974.6 -0.4 52
2019-05-22 16:00:00 22.9 14 Sudoeste 28 Sudoeste 0 974.6 -0.5 50
2019-05-22 15:00:00 22.6 9 Sudoeste 26 Sur 0 974.7 -0.1 51
2019-05-22 14:00:00 22.4 13 Oeste 21 Oeste 0 975 0.4 51
2019-05-22 13:00:00 21.4 11 Oeste 21 Noroeste 0 975.1 0.3 49
2019-05-22 12:00:00 20.3 4 Oeste 22 Sudoeste 0 974.8 0.3 55
2019-05-22 11:00:00 18 4 Sudeste 9 Sudeste 0 974.6 0.3 65
2019-05-22 10:00:00 15 3 Sur 8 Sur 0 974.8 0.7 66
2019-05-22 09:00:00 12.9 3 Sudeste -- -- 0 974.5 0.5 76
2019-05-22 08:00:00 9.9 2 Sur 5 Noroeste 0 974.3 -0.1 86
2019-05-22 07:00:00 7.9 2 Noroeste 9 Oeste 0 974.1 -0.6 94
2019-05-22 06:00:00 9 5 Oeste 9 Oeste 0 974 -1 87
2019-05-22 05:00:00 10.3 0 Calma 5 Este 0 974.4 -1 83
2019-05-22 04:00:00 10.6 2 Este 11 Sudeste 0 974.7 -0.6 81
2019-05-22 03:00:00 11.3 4 Sudeste 11 Este 0 975 -0.3 78
2019-05-22 02:00:00 11.8 3 Este 13 Este 0 975.4 0.3 78
2019-05-22 01:00:00 13 3 Este 11 Este 0 975.3 0.8 80
2019-05-22 00:00:00 13.3 0 Calma 9 Norte 0 975.3 1.1 79
2019-05-21 23:00:00 15.2 8 Norte 17 Norte 0 975.1 1.3 70
2019-05-21 22:00:00 16.7 12 Norte 22 Norte 0 974.5 1 68
2019-05-21 21:00:00 18.6 15 Norte 24 Norte 0 974.2 0.6 62
2019-05-21 20:00:00 20.1 9 Norte 24 Norte 0 973.8 0.2 59
2019-05-21 19:00:00 20.9 9 Norte 28 Norte 0 973.5 -0.3 56
2019-05-21 18:00:00 20.4 6 Norte 15 Norte 0 973.6 -0.2 58
2019-05-21 17:00:00 21.6 4 Noroeste 22 Norte 0 973.6 -0.5 51
2019-05-21 16:00:00 21.7 6 Noroeste 24 Norte 0 973.8 -0.5 50
2019-05-21 15:00:00 20.9 8 Norte 18 Norte 0 973.8 -0.5 52
2019-05-21 14:00:00 19.6 7 Norte 18 Norte 0 974.1 -0.3 54
2019-05-21 13:00:00 18.4 6 Nordeste 17 Norte 0 974.3 0 58
2019-05-21 12:00:00 17.2 3 Sur 13 Sudeste 0 974.3 0.4 57
2019-05-21 11:00:00 16.1 4 Este 9 Este 0 974.4 0.9 65
2019-05-21 10:00:00 14 4 Norte 8 Norte 0 974.3 1.1 70
2019-05-21 09:00:00 12.1 0 Calma 5 Este 0 973.9 0.9 77
2019-05-21 08:00:00 9.8 0 Calma 5 Oeste 0 973.5 0.5 82
2019-05-21 07:00:00 8.7 4 Noroeste 8 Noroeste 0 973.2 0.4 86
2019-05-21 06:00:00 9.7 0 Calma 4 Sudeste 0 973 0.1 81
2019-05-21 05:00:00 10.3 0 Calma -- -- 0 973 -0.3 81
2019-05-21 04:00:00 10.8 7 Sur 11 Sur 0 972.8 -0.6 74
2019-05-21 03:00:00 11.6 0 Calma 4 Sudeste 0 972.9 -0.5 73
2019-05-21 02:00:00 11.5 3 Norte 5 Norte 0 973.3 0.1 74
2019-05-21 01:00:00 12.2 0 Calma 4 Oeste 0 973.4 1.1 71
2019-05-21 00:00:00 12.2 0 Calma 8 Noroeste 0 973.4 1.4 68